Time;durP1;ratioP1;P1;durP2;ratioP2;P2;SDS_P1;SDS_P2;PMS_P1;PMS_P2;Temp;Humidity;BMP_temperature;BMP_pressure;BME280_temperature;BME280_humidity;BME280_pressure;Samples;Min_cycle;Max_cycle;Signal;HPM_P1;HPM_P2
2021/07/08 00:00:55;;;;;;;10.90;2.90;;;;;;;18.08;61.81;101145.63;3540234;40;20133;-81
2021/07/08 00:03:23;;;;;;;5.40;2.00;;;;;;;17.98;61.96;101138.22;3529517;40;20664;-81
2021/07/08 00:05:50;;;;;;;5.63;2.13;;;;;;;17.95;62.26;101141.88;3546016;40;20117;-80
2021/07/08 00:08:17;;;;;;;4.00;1.63;;;;;;;17.94;62.59;101144.56;3533807;40;20468;-81
2021/07/08 00:10:54;;;;;;;4.00;1.88;;;;;;;17.98;62.12;101157.56;3502536;40;20050;-81
2021/07/08 00:13:28;;;;;;;5.30;2.08;;;;;;;17.93;62.25;101149.00;3539539;40;20596;-80
2021/07/08 00:15:56;;;;;;;4.97;2.25;;;;;;;17.91;62.80;101142.09;3524010;40;20604;-80
2021/07/08 00:18:27;;;;;;;6.85;2.38;;;;;;;17.96;62.82;101150.66;3539290;40;20043;-81
2021/07/08 00:21:01;;;;;;;5.60;2.25;;;;;;;17.94;62.42;101149.84;3538480;40;20715;-81
2021/07/08 00:23:30;;;;;;;5.30;2.10;;;;;;;17.96;63.15;101150.66;3528224;40;20184;-80
2021/07/08 00:26:00;;;;;;;6.22;1.92;;;;;;;17.98;62.80;101149.63;3516034;40;20066;-81
2021/07/08 00:28:34;;;;;;;4.43;1.90;;;;;;;17.97;62.74;101155.00;3502515;40;20081;-81
2021/07/08 00:31:02;;;;;;;5.25;2.38;;;;;;;18.00;63.52;101161.00;3530706;40;20108;-81
2021/07/08 00:33:29;;;;;;;5.65;2.40;;;;;;;17.97;63.92;101149.72;3561356;40;20030;-80
2021/07/08 00:35:57;;;;;;;4.88;2.08;;;;;;;18.01;63.88;101151.28;3551510;40;20057;-81
2021/07/08 00:38:26;;;;;;;4.88;2.25;;;;;;;18.04;63.44;101159.06;3549228;40;20052;-81
2021/07/08 00:40:53;;;;;;;5.50;1.77;;;;;;;18.04;63.88;101154.63;3562169;40;20104;-80
2021/07/08 00:43:20;;;;;;;6.32;2.60;;;;;;;18.08;64.02;101158.84;3522088;40;20085;-81
2021/07/08 00:45:48;;;;;;;8.03;2.67;;;;;;;18.08;64.67;101163.28;3525119;40;20054;-80
2021/07/08 00:48:16;;;;;;;;;;;;;;;18.17;61.87;101167.28;3556929;40;20276;-79
2021/07/08 00:50:46;;;;;;;6.20;2.47;;;;;;;18.09;64.48;101150.00;3574919;40;19982;-80
2021/07/08 00:53:20;;;;;;;8.82;3.20;;;;;;;18.17;63.85;101157.56;3562943;40;20082;-80
2021/07/08 00:55:57;;;;;;;7.30;2.80;;;;;;;18.17;63.88;101162.84;3535291;40;20095;-80
2021/07/08 00:58:24;;;;;;;7.13;3.10;;;;;;;18.19;64.54;101176.00;3530341;40;20050;-79
2021/07/08 01:00:54;;;;;;;7.25;2.55;;;;;;;18.19;64.78;101171.56;3506188;40;20447;-80
2021/07/08 01:03:23;;;;;;;6.90;2.70;;;;;;;18.22;64.92;101174.06;3502994;40;20544;-80
2021/07/08 01:05:53;;;;;;;8.68;3.25;;;;;;;18.23;64.86;101167.84;3533106;40;20063;-81
2021/07/08 01:08:21;;;;;;;8.30;3.17;;;;;;;18.20;65.44;101169.78;3496125;40;20058;-80
2021/07/08 01:10:51;;;;;;;;;;;;;;;18.32;62.59;101177.16;3537543;40;20115;-81
2021/07/08 01:13:19;;;;;;;6.05;2.38;;;;;;;18.27;65.36;101165.94;3478254;40;19955;-80
2021/07/08 01:15:46;;;;;;;7.40;2.67;;;;;;;18.27;65.54;101158.84;3495923;40;20059;-80
2021/07/08 01:18:14;;;;;;;7.65;2.60;;;;;;;18.29;65.26;101164.91;3487933;40;20052;-80
2021/07/08 01:20:44;;;;;;;7.53;2.63;;;;;;;18.35;65.22;101172.56;3496262;40;20121;-80
2021/07/08 01:23:11;;;;;;;6.03;2.42;;;;;;;18.32;64.98;101164.78;3516788;40;20624;-80
2021/07/08 01:25:42;;;;;;;6.00;2.25;;;;;;;18.31;65.08;101157.78;3526868;40;20108;-80
2021/07/08 01:28:10;;;;;;;5.80;2.17;;;;;;;18.37;65.03;101173.34;3478896;40;20583;-80
2021/07/08 01:30:38;;;;;;;4.90;1.83;;;;;;;18.35;65.05;101172.56;3524257;40;20460;-80
2021/07/08 01:33:08;;;;;;;5.63;2.13;;;;;;;18.34;65.12;101164.69;3530466;40;20131;-80
2021/07/08 01:35:42;;;;;;;3.92;1.60;;;;;;;18.29;64.46;101172.84;3549155;40;20065;-80
2021/07/08 01:38:09;;;;;;;5.22;1.70;;;;;;;18.28;65.31;101176.44;3522245;40;20042;-80
2021/07/08 01:40:39;;;;;;;6.10;2.00;;;;;;;18.25;65.09;101178.34;3540033;40;20110;-80
2021/07/08 01:43:07;;;;;;;6.60;2.65;;;;;;;18.23;65.61;101181.06;3529970;40;20286;-80
2021/07/08 01:45:37;;;;;;;6.05;2.35;;;;;;;18.21;65.11;101180.31;3529242;40;20045;-80
2021/07/08 01:48:03;;;;;;;5.53;1.95;;;;;;;18.14;66.05;101173.56;3531902;40;20051;-80
2021/07/08 01:50:35;;;;;;;6.25;2.20;;;;;;;18.16;65.44;101187.59;3530122;40;20053;-80
2021/07/08 01:53:06;;;;;;;4.53;1.33;;;;;;;18.16;65.31;101184.94;3562571;40;20067;-80
2021/07/08 01:55:40;;;;;;;6.32;2.20;;;;;;;18.12;65.37;101183.38;3532478;40;20096;-80
2021/07/08 01:58:09;;;;;;;4.82;1.75;;;;;;;18.09;66.05;101187.00;3492432;40;20054;-81
2021/07/08 02:00:37;;;;;;;6.20;1.77;;;;;;;18.05;66.26;101180.16;3552891;40;20116;-80
2021/07/08 02:03:10;;;;;;;;;;;;;;;18.11;64.12;101187.78;3557132;40;20103;-80
2021/07/08 02:05:38;;;;;;;3.65;1.35;;;;;;;18.07;66.10;101180.06;3539813;40;19937;-80
2021/07/08 02:08:16;;;;;;;4.47;1.50;;;;;;;18.07;65.58;101177.44;3562448;40;20058;-80
2021/07/08 02:10:44;;;;;;;5.05;1.65;;;;;;;17.97;66.19;101165.56;3514910;40;20042;-80
2021/07/08 02:13:19;;;;;;;6.07;2.03;;;;;;;18.04;65.76;101188.13;3552033;40;20104;-80
2021/07/08 02:15:49;;;;;;;5.47;1.73;;;;;;;18.00;66.56;101191.88;3553409;40;20619;-80
2021/07/08 02:18:21;;;;;;;6.05;1.83;;;;;;;17.96;66.39;101179.72;3522874;40;20089;-80
2021/07/08 02:20:50;;;;;;;5.47;1.83;;;;;;;17.94;66.86;101176.28;3550296;40;20092;-80
2021/07/08 02:23:19;;;;;;;4.80;1.30;;;;;;;17.95;66.69;101178.00;3533100;40;20049;-80
2021/07/08 02:25:49;;;;;;;4.72;1.42;;;;;;;17.97;66.44;101181.44;3530971;40;20100;-81
2021/07/08 02:28:17;;;;;;;6.57;1.80;;;;;;;17.91;67.25;101184.34;3528233;40;20078;-80
2021/07/08 02:30:47;;;;;;;5.20;1.50;;;;;;;17.92;66.68;101188.72;3545098;40;20347;-80
2021/07/08 02:33:14;;;;;;;5.05;1.60;;;;;;;17.88;66.79;101182.69;3514457;40;20057;-80
2021/07/08 02:35:41;;;;;;;5.70;1.88;;;;;;;17.86;66.78;101182.78;3550456;40;20703;-80
2021/07/08 02:38:09;;;;;;;4.88;1.63;;;;;;;17.83;67.09;101184.69;3527205;40;20054;-80
2021/07/08 02:40:42;;;;;;;5.15;1.55;;;;;;;17.88;66.34;101199.41;3521164;40;20049;-80
2021/07/08 02:43:10;;;;;;;5.55;1.85;;;;;;;17.84;67.52;101195.22;3533151;40;21447;-80
2021/07/08 02:45:40;;;;;;;6.32;1.50;;;;;;;17.82;67.11;101189.13;3542706;40;20043;-80
2021/07/08 02:48:17;;;;;;;5.22;1.67;;;;;;;17.84;66.55;101197.84;3563197;40;20698;-80
2021/07/08 02:50:46;;;;;;;5.97;1.50;;;;;;;17.77;67.66;101182.31;3549108;40;20043;-80
2021/07/08 02:53:17;;;;;;;4.32;1.35;;;;;;;17.78;67.21;101178.75;3541780;40;20136;-80
2021/07/08 02:55:44;;;;;;;4.10;1.40;;;;;;;17.81;68.03;101190.06;3569087;40;20131;-80
2021/07/08 02:58:12;;;;;;;3.50;1.30;;;;;;;17.80;67.73;101185.69;3539944;40;20082;-80
2021/07/08 03:00:39;;;;;;;6.20;1.85;;;;;;;17.82;67.63;101194.41;3537528;40;20043;-80
2021/07/08 03:03:10;;;;;;;7.47;1.88;;;;;;;17.83;67.29;101185.53;3541348;40;20074;-80
2021/07/08 03:05:39;;;;;;;5.55;1.48;;;;;;;17.77;67.47;101175.25;3546489;40;20052;-81
2021/07/08 03:08:10;;;;;;;7.50;2.10;;;;;;;17.81;67.59;101182.13;3516847;40;20053;-80
2021/07/08 03:10:39;;;;;;;4.95;1.55;;;;;;;17.83;67.47;101190.81;3552148;40;20097;-80
2021/07/08 03:13:10;;;;;;;5.10;1.65;;;;;;;17.82;67.49;101194.41;3523285;40;20479;-80
2021/07/08 03:15:41;;;;;;;6.00;1.60;;;;;;;17.80;67.46;101193.63;3549676;40;20743;-80
2021/07/08 03:18:09;;;;;;;5.35;1.38;;;;;;;17.75;67.74;101182.41;3514159;40;20049;-79
2021/07/08 03:20:38;;;;;;;4.68;1.70;;;;;;;17.78;67.64;101192.81;3531814;40;20625;-80
2021/07/08 03:23:15;;;;;;;4.30;1.48;;;;;;;17.79;67.05;101189.28;3532995;40;20142;-80
2021/07/08 03:25:42;;;;;;;6.45;2.33;;;;;;;17.77;68.28;101199.03;3520610;40;20065;-80
2021/07/08 03:28:10;;;;;;;6.80;2.30;;;;;;;17.73;67.97;101192.16;3539897;40;20031;-80
2021/07/08 03:30:39;;;;;;;;;;;;;;;17.85;65.98;101204.84;3547231;40;20070;-80
2021/07/08 03:33:08;;;;;;;4.80;1.98;;;;;;;17.83;67.35;101197.91;3539303;40;19953;-80
2021/07/08 03:35:36;;;;;;;6.07;2.08;;;;;;;17.72;68.43;101185.13;3504303;40;20626;-80
2021/07/08 03:38:05;;;;;;;6.70;2.00;;;;;;;17.82;67.73;101204.97;3523898;40;20404;-80
2021/07/08 03:40:33;;;;;;;5.50;1.40;;;;;;;17.85;67.80;101209.28;3532806;40;20106;-80
2021/07/08 03:43:01;;;;;;;6.22;1.70;;;;;;;17.81;67.83;101197.97;3530687;40;20030;-80
2021/07/08 03:45:28;;;;;;;6.07;1.83;;;;;;;17.76;68.06;101189.41;3535401;40;20400;-80
2021/07/08 03:47:56;;;;;;;5.80;1.75;;;;;;;17.91;67.88;101208.13;3538843;40;20053;-80
2021/07/08 03:50:23;;;;;;;6.78;1.55;;;;;;;17.88;68.05;101209.97;3547836;40;20078;-80
2021/07/08 03:52:58;;;;;;;6.10;2.17;;;;;;;17.91;67.07;101208.13;3544767;40;20074;-80
2021/07/08 03:55:29;;;;;;;7.28;2.03;;;;;;;17.92;67.61;101215.13;3501777;40;20105;-80
2021/07/08 03:57:56;;;;;;;5.65;2.00;;;;;;;17.86;67.54;101203.91;3528353;40;20113;-80
2021/07/08 04:00:38;;;;;;;7.07;2.00;;;;;;;17.89;67.62;101217.00;3506502;40;20420;-81
2021/07/08 04:03:14;;;;;;;4.95;1.83;;;;;;;17.92;66.98;101225.69;3511638;40;20058;-80
2021/07/08 04:05:50;;;;;;;6.28;1.98;;;;;;;17.88;67.06;101220.53;3513543;40;20054;-79
2021/07/08 04:08:19;;;;;;;7.45;1.88;;;;;;;17.85;67.85;101220.69;3511874;40;20067;-80
2021/07/08 04:10:59;;;;;;;7.68;2.33;;;;;;;17.81;67.02;101213.81;3527087;40;20051;-80
2021/07/08 04:13:27;;;;;;;5.53;1.60;;;;;;;17.83;67.96;101221.69;3538329;40;20096;-80
2021/07/08 04:15:55;;;;;;;7.10;2.03;;;;;;;17.77;68.00;101217.53;3561017;40;20107;-80
2021/07/08 04:18:22;;;;;;;6.20;1.80;;;;;;;17.73;68.20;101217.72;3557569;40;20046;-80
2021/07/08 04:20:50;;;;;;;5.53;1.92;;;;;;;17.68;68.14;101212.59;3571559;40;20038;-80
2021/07/08 04:23:17;;;;;;;6.38;1.80;;;;;;;17.74;68.04;101233.53;3545005;40;20104;-80
2021/07/08 04:25:47;;;;;;;6.93;1.92;;;;;;;17.74;68.30;101228.25;3553665;40;20535;-80
2021/07/08 04:28:18;;;;;;;8.23;2.03;;;;;;;17.72;68.06;101227.41;3521635;40;20097;-80
2021/07/08 04:30:45;;;;;;;6.72;2.13;;;;;;;17.73;68.54;101237.06;3535527;40;20042;-80
2021/07/08 04:33:17;;;;;;;6.72;1.77;;;;;;;17.73;68.36;101246.78;3552391;40;20100;-80
2021/07/08 04:35:45;;;;;;;6.13;2.05;;;;;;;17.66;68.37;101227.69;3520876;40;20042;-80
2021/07/08 04:38:13;;;;;;;7.65;2.10;;;;;;;17.69;68.50;101240.75;3554894;40;20054;-80
2021/07/08 04:40:43;;;;;;;6.18;1.95;;;;;;;17.73;68.37;101242.34;3533182;40;20070;-80
2021/07/08 04:43:12;;;;;;;7.10;2.05;;;;;;;17.71;68.59;101253.91;3521708;40;20053;-80
2021/07/08 04:45:39;;;;;;;5.53;1.70;;;;;;;17.67;68.88;101237.31;3539315;40;20062;-80
2021/07/08 04:48:07;;;;;;;7.60;2.42;;;;;;;17.69;68.73;101246.06;3505465;40;20042;-80
2021/07/08 04:50:34;;;;;;;6.85;2.00;;;;;;;17.69;68.77;101240.75;3487124;40;21114;-81
2021/07/08 04:53:02;;;;;;;5.95;1.80;;;;;;;17.70;68.68;101242.47;3568677;40;20041;-79
2021/07/08 04:55:36;;;;;;;6.38;1.70;;;;;;;17.71;68.42;101238.91;3536916;40;20041;-80
2021/07/08 04:58:08;;;;;;;6.47;2.25;;;;;;;17.72;68.51;101245.91;3544513;40;20049;-80
2021/07/08 05:00:38;;;;;;;10.00;2.55;;;;;;;17.74;68.65;101259.94;3556424;40;20062;-80
2021/07/08 05:03:07;;;;;;;5.60;1.80;;;;;;;17.71;69.04;101253.91;3557532;40;20041;-80
2021/07/08 05:05:36;;;;;;;5.85;1.50;;;;;;;17.73;68.80;101260.00;3527054;40;20042;-80
2021/07/08 05:08:06;;;;;;;7.03;2.30;;;;;;;17.77;68.60;101264.22;3558034;40;20052;-80
2021/07/08 05:10:38;;;;;;;7.63;2.00;;;;;;;17.77;68.38;101261.56;3549589;40;20049;-80
2021/07/08 05:13:08;;;;;;;7.75;1.83;;;;;;;17.78;68.97;101273.84;3528001;40;20069;-80
2021/07/08 05:15:37;;;;;;;6.72;1.98;;;;;;;17.75;68.64;101277.50;3565309;40;20057;-80
2021/07/08 05:18:05;;;;;;;8.05;2.42;;;;;;;17.74;68.88;101273.16;3569768;40;20073;-80
2021/07/08 05:20:39;;;;;;;7.55;1.98;;;;;;;17.77;68.61;101280.94;3551861;40;20049;-80
2021/07/08 05:23:15;;;;;;;7.38;2.00;;;;;;;17.74;69.26;101274.91;3520654;40;20661;-80
2021/07/08 05:26:10;;;;;;;6.22;1.70;;;;;;;17.80;67.80;101286.09;3537762;40;20093;-80
2021/07/08 05:28:38;;;;;;;7.07;1.92;;;;;;;17.74;68.86;101286.34;3522332;40;20129;-80
2021/07/08 05:31:09;;;;;;;7.22;2.08;;;;;;;17.78;69.08;101284.41;3556174;40;20878;-80
2021/07/08 05:33:35;;;;;;;6.15;1.75;;;;;;;17.74;69.32;101281.06;3549265;40;20086;-80
2021/07/08 05:36:02;;;;;;;6.55;2.47;;;;;;;17.73;69.56;101284.63;3551934;40;20058;-81
2021/07/08 05:38:54;;;;;;;5.65;1.95;;;;;;;17.84;68.07;101287.69;3568412;40;20057;-80
2021/07/08 05:41:23;;;;;;;8.13;2.30;;;;;;;17.80;69.06;101285.22;3553410;40;20042;-80
2021/07/08 05:43:51;;;;;;;6.97;1.88;;;;;;;17.81;69.19;101293.09;3570627;40;20098;-80
2021/07/08 05:46:20;;;;;;;7.20;2.20;;;;;;;17.83;69.37;101293.88;3534359;40;20386;-80
2021/07/08 05:48:47;;;;;;;7.30;2.35;;;;;;;17.86;69.51;101295.53;3529935;40;20041;-80
2021/07/08 05:51:13;;;;;;;7.68;1.98;;;;;;;17.89;69.56;101295.38;3565407;40;20057;-80
2021/07/08 05:53:41;;;;;;;6.80;2.20;;;;;;;17.95;69.27;101305.69;3531683;40;20533;-80
2021/07/08 05:56:09;;;;;;;;;;;;;;;18.06;67.35;101310.50;3537655;40;20104;-80
2021/07/08 05:58:38;;;;;;;4.95;1.98;;;;;;;18.00;68.82;101300.22;3536756;40;20404;-80
2021/07/08 06:01:07;;;;;;;7.55;2.63;;;;;;;18.05;68.62;101304.38;3561305;40;20758;-80
2021/07/08 06:03:35;;;;;;;6.18;1.90;;;;;;;18.04;69.00;101299.13;3530441;40;20061;-80
2021/07/08 06:06:04;;;;;;;;;;;;;;;18.17;67.30;101307.41;3528006;40;20057;-80
2021/07/08 06:08:32;;;;;;;6.88;1.95;;;;;;;18.12;68.75;101302.31;3535674;40;19944;-80
2021/07/08 06:11:00;;;;;;;6.63;2.47;;;;;;;18.14;68.71;101303.94;3564643;40;20162;-81
2021/07/08 06:13:35;;;;;;;8.87;2.77;;;;;;;18.25;67.76;101313.19;3550252;40;20073;-80
2021/07/08 06:16:03;;;;;;;8.15;2.60;;;;;;;18.27;67.93;101316.63;3546115;40;20054;-80
2021/07/08 06:18:40;;;;;;;6.75;2.33;;;;;;;18.29;67.74;101315.63;3543923;40;20061;-80
2021/07/08 06:21:08;;;;;;;6.78;2.30;;;;;;;18.26;68.03;101315.78;3549530;40;20077;-80
2021/07/08 06:24:08;;;;;;;;;;;;;;;18.39;66.93;101322.19;3559285;40;20133;-80
2021/07/08 06:26:35;;;;;;;6.85;1.85;;;;;;;18.34;68.08;101324.19;3533983;40;20778;-80
2021/07/08 06:29:03;;;;;;;5.63;2.03;;;;;;;18.33;67.88;101319.84;3534138;40;20052;-81
2021/07/08 06:31:31;;;;;;;5.80;2.30;;;;;;;18.43;67.92;101328.22;3566228;40;20045;-80
2021/07/08 06:33:59;;;;;;;7.28;2.30;;;;;;;18.46;67.82;101332.53;3540641;40;20045;-81
2021/07/08 06:36:26;;;;;;;6.75;2.03;;;;;;;18.45;67.83;101330.78;3530663;40;20068;-81
2021/07/08 06:38:53;;;;;;;7.68;2.25;;;;;;;18.47;67.85;101328.94;3534159;40;20104;-80
2021/07/08 06:41:26;;;;;;;8.98;2.55;;;;;;;18.56;67.27;101341.75;3539207;40;20073;-81
2021/07/08 06:43:54;;;;;;;6.90;2.40;;;;;;;18.49;67.42;101333.22;3546370;40;20771;-81
2021/07/08 06:46:27;;;;;;;7.35;2.10;;;;;;;18.51;67.44;101331.38;3533951;40;20854;-80
2021/07/08 06:48:55;;;;;;;6.18;2.00;;;;;;;18.60;66.72;101341.56;3560444;40;20054;-81
2021/07/08 06:51:23;;;;;;;6.13;2.05;;;;;;;18.58;67.07;101332.81;3541364;40;20088;-81
2021/07/08 06:53:55;;;;;;;5.03;1.75;;;;;;;18.60;67.08;101330.97;3523865;40;20060;-81
2021/07/08 06:56:26;;;;;;;6.32;2.20;;;;;;;18.71;66.69;101349.03;3522472;40;20062;-81
2021/07/08 06:58:56;;;;;;;5.90;1.65;;;;;;;18.74;66.87;101353.31;3517915;40;20048;-81
2021/07/08 07:01:23;;;;;;;6.38;1.80;;;;;;;18.72;66.87;101345.44;3507927;40;20062;-80
2021/07/08 07:03:50;;;;;;;5.22;1.95;;;;;;;18.78;66.47;101345.16;3530510;40;20812;-80
2021/07/08 07:06:17;;;;;;;5.03;1.48;;;;;;;18.83;66.47;101345.78;3528158;40;21154;-80
2021/07/08 07:08:47;;;;;;;5.03;1.67;;;;;;;18.87;66.77;101335.94;3547751;40;20041;-81
2021/07/08 07:11:20;;;;;;;4.38;1.40;;;;;;;19.06;67.13;101350.03;3538873;40;20096;-81
2021/07/08 07:13:48;;;;;;;4.75;1.27;;;;;;;19.12;67.16;101343.56;3558153;40;20822;-79
2021/07/08 07:16:17;;;;;;;4.50;1.50;;;;;;;19.32;66.21;101355.84;3553768;40;20101;-81
2021/07/08 07:33:42;;;;;;;5.28;1.67;;;;;;;20.05;63.90;101361.91;1174927;23;20168;-79
2021/07/08 07:39:00;;;;;;;3.85;1.55;;;;;;;20.07;62.99;101342.34;3717503;23;19957;-80
2021/07/08 07:54:16;;;;;;;4.03;1.42;;;;;;;20.38;62.82;101370.78;3657759;23;20043;-80
2021/07/08 07:57:08;;;;;;;5.13;1.40;;;;;;;20.44;63.13;101375.75;1220732;23;22089;-80
2021/07/08 08:05:43;;;;;;;3.40;1.08;;;;;;;20.67;62.63;101371.88;1226575;22;21767;-78
2021/07/08 08:20:44;;;;;;;4.32;1.58;;;;;;;20.92;61.01;101374.03;3767201;22;20051;31
2021/07/08 08:35:42;;;;;;;1.73;0.55;;;;;;;20.98;61.13;101383.47;1228001;22;21415;-81
2021/07/08 08:43:53;;;;;;;2.72;1.10;;;;;;;21.07;59.67;101395.38;3738756;22;20070;-81
2021/07/08 08:46:45;;;;;;;2.65;0.88;;;;;;;21.21;60.78;101387.50;1213405;22;22011;-81
2021/07/08 08:55:49;;;;;;;4.07;1.30;;;;;;;21.47;59.94;101402.84;3792813;22;20041;-80
2021/07/08 09:10:25;;;;;;;4.10;1.42;;;;;;;21.94;59.01;101404.53;3751271;22;20043;-82
2021/07/08 09:13:16;;;;;;;3.55;1.10;;;;;;;22.12;59.51;101404.44;3780802;22;20059;-81
2021/07/08 09:15:44;;;;;;;4.15;1.52;;;;;;;22.05;57.72;101384.44;3658302;22;20088;-81
2021/07/08 09:18:13;;;;;;;4.50;1.42;;;;;;;22.32;55.05;101404.09;3648675;22;20101;-81
2021/07/08 09:24:00;;;;;;;4.80;1.42;;;;;;;22.58;55.21;101399.00;3609338;39;20070;-81
2021/07/08 09:26:30;;;;;;;4.40;1.50;;;;;;;22.83;56.13;101401.84;3593075;39;20060;-81
2021/07/08 09:29:06;;;;;;;5.80;2.10;;;;;;;22.96;55.35;101405.47;3594246;39;20393;-82
2021/07/08 09:31:39;;;;;;;8.27;2.03;;;;;;;23.12;55.18;101404.50;3590611;39;20036;-81
2021/07/08 09:37:14;;;;;;;5.47;2.05;;;;;;;23.31;53.07;101411.19;3579936;39;20063;-81
2021/07/08 09:39:44;;;;;;;5.03;1.85;;;;;;;23.39;53.04;101404.50;3582324;39;20036;-81
2021/07/08 09:42:40;;;;;;;5.88;2.40;;;;;;;23.45;55.50;101406.78;3615966;39;20056;-82
2021/07/08 09:48:10;;;;;;;3.63;1.50;;;;;;;23.66;52.88;101412.53;3526265;39;20032;-82
2021/07/08 09:50:37;;;;;;;4.82;1.63;;;;;;;23.72;52.14;101412.13;3580141;40;20057;-82
2021/07/08 09:53:15;;;;;;;4.07;1.42;;;;;;;23.84;51.57;101408.66;3562129;40;20056;-81
2021/07/08 09:56:43;;;;;;;4.28;1.77;;;;;;;24.15;54.08;101418.09;3553369;40;20069;-81
2021/07/08 09:58:59;;;;;;;4.97;2.13;;;;;;;24.57;53.50;101414.28;3565329;40;20092;-81
2021/07/08 10:01:27;;;;;;;4.75;2.00;;;;;;;24.95;51.39;101417.88;3583723;40;20064;-82
2021/07/08 10:03:55;;;;;;;4.28;1.85;;;;;;;25.24;49.36;101407.78;3580251;40;20053;-81
2021/07/08 10:06:49;;;;;;;4.88;1.65;;;;;;;25.62;52.17;101416.50;3582418;40;20086;-82
2021/07/08 10:09:25;;;;;;;3.97;1.60;;;;;;;25.67;49.29;101416.16;3584904;40;21250;-81
2021/07/08 10:11:55;;;;;;;4.25;1.63;;;;;;;25.64;48.76;101416.38;3570755;39;20109;-82
2021/07/08 10:14:23;;;;;;;5.38;2.17;;;;;;;25.59;47.48;101415.88;3566415;40;20064;-82
2021/07/08 10:16:54;;;;;;;3.92;1.70;;;;;;;25.59;47.46;101419.38;3543472;39;20545;-82
2021/07/08 10:19:24;;;;;;;3.47;1.30;;;;;;;25.53;46.49;101425.19;3566535;40;20048;-81
2021/07/08 10:21:56;;;;;;;4.50;1.60;;;;;;;25.44;47.81;101420.53;3561893;39;20311;-81
2021/07/08 10:24:30;;;;;;;3.47;1.48;;;;;;;25.27;48.95;101412.91;3584543;40;20072;-81
2021/07/08 10:50:50;;;;;;;5.22;1.50;;;;;;;24.77;45.57;101430.72;3582847;39;20066;-82
2021/07/08 10:53:40;;;;;;;4.30;1.73;;;;;;;24.99;48.46;101428.25;3599945;39;20060;-82
2021/07/08 10:56:16;;;;;;;1.77;1.10;;;;;;;25.16;46.79;101423.53;3566328;40;20086;-82
2021/07/08 10:58:55;;;;;;;3.77;1.40;;;;;;;25.43;48.10;101416.16;3545367;40;20102;-82
2021/07/08 11:01:25;;;;;;;2.40;1.20;;;;;;;25.67;45.58;101426.84;3565355;40;20073;-82
2021/07/08 11:03:58;;;;;;;2.92;1.40;;;;;;;25.96;45.37;101426.53;3559687;40;20061;-82
2021/07/08 11:06:32;;;;;;;3.13;1.35;;;;;;;26.21;43.97;101421.00;3569250;39;20068;-82
2021/07/08 11:09:16;;;;;;;4.20;1.30;;;;;;;26.56;45.90;101425.44;3565594;39;20346;-82
2021/07/08 11:11:45;;;;;;;3.25;1.40;;;;;;;26.76;44.08;101419.34;3587439;39;20348;-82
2021/07/08 11:14:14;;;;;;;2.95;1.33;;;;;;;26.97;42.30;101423.97;3589415;39;20054;-82
2021/07/08 11:16:49;;;;;;;4.43;1.30;;;;;;;27.24;43.18;101419.09;3587354;39;20102;-82
2021/07/08 11:19:19;;;;;;;2.88;1.38;;;;;;;27.55;41.86;101420.13;3580480;39;20057;-82
2021/07/08 11:21:49;;;;;;;4.18;1.77;;;;;;;27.72;41.16;101424.09;3583934;39;20054;-82
2021/07/08 11:24:20;;;;;;;4.13;1.65;;;;;;;27.81;41.10;101430.53;3566882;40;20055;-82
2021/07/08 11:27:23;;;;;;;4.15;1.80;;;;;;;27.92;43.37;101435.84;3581383;40;20656;-82
2021/07/08 11:29:52;;;;;;;5.13;1.52;;;;;;;27.71;39.43;101416.19;3569424;39;20080;-82
2021/07/08 11:32:45;;;;;;;5.13;1.60;;;;;;;27.84;43.07;101432.97;3591251;39;20077;-82
2021/07/08 11:38:17;;;;;;;3.42;1.40;;;;;;;27.61;41.17;101433.00;3580974;39;20061;-82
2021/07/08 11:40:48;;;;;;;2.78;1.40;;;;;;;27.40;39.17;101427.59;3554106;40;20409;-83
2021/07/08 11:43:23;;;;;;;2.88;1.50;;;;;;;27.29;40.04;101418.75;3575863;40;20065;-82
2021/07/08 11:46:08;;;;;;;3.28;1.35;;;;;;;27.21;41.55;101426.53;3553888;39;20051;-82
2021/07/08 11:48:43;;;;;;;2.28;1.30;;;;;;;27.06;41.24;101431.28;3585857;39;20445;-82
2021/07/08 11:51:17;;;;;;;2.50;1.30;;;;;;;26.91;40.32;101425.31;3545477;40;20428;-82
2021/07/08 11:53:47;;;;;;;2.75;1.23;;;;;;;26.84;40.88;101429.47;3531748;40;20072;-82
2021/07/08 11:56:38;;;;;;;2.65;1.20;;;;;;;27.03;43.64;101429.72;3554889;40;20046;-82
2021/07/08 11:59:05;;;;;;;3.28;1.58;;;;;;;27.01;41.00;101417.41;3564994;40;20077;-82
2021/07/08 12:01:37;;;;;;;;;;;;;;;27.40;44.73;101432.13;3570906;40;20101;-82
2021/07/08 12:04:20;;;;;;;3.13;1.80;;;;;;;27.57;42.74;101428.88;3578608;40;19932;-82
2021/07/08 12:06:47;;;;;;;4.68;1.92;;;;;;;27.55;39.60;101424.63;3551489;40;20041;-83
2021/07/08 12:09:20;;;;;;;4.07;1.65;;;;;;;27.65;39.96;101425.56;3580028;40;20452;-82
2021/07/08 12:11:51;;;;;;;4.70;1.88;;;;;;;27.88;39.98;101437.13;3585424;40;20049;-82
2021/07/08 12:14:22;;;;;;;4.55;1.90;;;;;;;28.03;39.94;101438.50;3571839;40;20081;-82
2021/07/08 12:16:53;;;;;;;3.63;1.77;;;;;;;28.08;38.49;101425.53;3577460;40;20459;-82
2021/07/08 12:19:25;;;;;;;4.40;2.30;;;;;;;28.16;38.76;101447.19;3587590;40;20052;-82
2021/07/08 12:21:59;;;;;;;4.95;2.30;;;;;;;28.20;38.87;101437.06;3582891;40;20530;-81
2021/07/08 12:24:31;;;;;;;5.85;2.53;;;;;;;28.18;38.92;101444.38;3561106;40;20466;-82
2021/07/08 12:27:05;;;;;;;4.10;2.25;;;;;;;28.11;38.26;101443.22;3586777;40;20088;-82
2021/07/08 12:29:41;;;;;;;4.20;2.05;;;;;;;28.01;39.27;101437.75;3578033;40;21198;-82
2021/07/08 12:32:11;;;;;;;3.63;1.83;;;;;;;27.90;37.37;101445.88;3578999;40;20052;-82
2021/07/08 12:34:46;;;;;;;3.85;1.92;;;;;;;27.89;37.75;101444.19;3575833;40;20061;-83
2021/07/08 12:37:20;;;;;;;3.03;1.60;;;;;;;27.91;39.21;101442.22;3584461;40;20037;-82
2021/07/08 12:40:06;;;;;;;3.35;1.90;;;;;;;27.96;39.22;101447.19;3586058;39;20048;-83
2021/07/08 12:42:55;;;;;;;2.85;1.70;;;;;;;27.79;37.27;101429.81;3573181;40;20056;-82
2021/07/08 12:45:24;;;;;;;2.90;1.73;;;;;;;27.81;38.62;101436.75;3569975;40;20537;-82
2021/07/08 12:47:54;;;;;;;2.95;1.77;;;;;;;27.70;38.28;101438.59;3572027;40;20056;-82
2021/07/08 12:50:26;;;;;;;2.55;1.60;;;;;;;27.64;38.14;101435.47;3562515;39;20306;-82
2021/07/08 12:52:56;;;;;;;2.78;1.63;;;;;;;27.60;39.16;101434.00;3579785;40;20043;-82
2021/07/08 12:55:48;;;;;;;3.50;1.60;;;;;;;27.63;40.67;101439.13;3574116;39;20056;-82
2021/07/08 12:58:25;;;;;;;5.13;2.13;;;;;;;27.60;39.29;101428.63;3584878;39;20137;-82
2021/07/08 13:00:59;;;;;;;3.58;1.90;;;;;;;27.56;37.82;101427.19;3569848;40;20993;-82
2021/07/08 13:03:28;;;;;;;5.43;1.90;;;;;;;27.53;39.09;101432.81;3564982;40;20407;-82
2021/07/08 13:06:08;;;;;;;3.83;2.10;;;;;;;27.49;40.15;101436.72;3569916;40;20093;-82
2021/07/08 13:08:37;;;;;;;4.05;1.80;;;;;;;27.40;38.95;101438.31;3561190;40;20894;-82
2021/07/08 13:11:09;;;;;;;3.50;1.60;;;;;;;27.35;39.87;101439.69;3584889;40;20049;-82
2021/07/08 13:13:38;;;;;;;2.97;1.75;;;;;;;27.26;39.66;101435.06;3574532;40;20077;-82
2021/07/08 13:16:17;;;;;;;3.88;1.90;;;;;;;27.20;40.60;101430.22;3562356;40;20075;-82
2021/07/08 13:18:45;;;;;;;3.97;2.30;;;;;;;27.08;39.16;101432.91;3578337;40;20044;-82
2021/07/08 13:21:21;;;;;;;4.38;2.17;;;;;;;27.05;40.57;101440.31;3567823;40;20048;-83
2021/07/08 13:23:52;;;;;;;3.28;1.98;;;;;;;26.95;40.13;101434.84;3556156;40;20368;-82
2021/07/08 13:26:21;;;;;;;5.07;2.10;;;;;;;26.88;39.57;101441.66;3583952;40;20040;-82
2021/07/08 13:28:49;;;;;;;4.32;2.08;;;;;;;26.75;39.30;101435.56;3554343;39;20048;-82
2021/07/08 13:31:20;;;;;;;4.35;2.00;;;;;;;26.68;39.66;101445.06;3585646;39;20047;-82
2021/07/08 13:36:52;;;;;;;4.90;1.90;;;;;;;26.41;41.11;101446.25;3596453;39;20076;-82
2021/07/08 13:42:07;;;;;;;3.67;2.22;;;;;;;26.02;41.11;101448.31;3589651;39;20025;-82
2021/07/08 13:44:40;;;;;;;4.75;2.50;;;;;;;25.83;41.84;101442.63;3542298;39;20059;-81
2021/07/08 13:47:07;;;;;;;4.20;2.22;;;;;;;25.80;41.98;101448.22;3568867;40;20136;-82
2021/07/08 13:49:43;;;;;;;4.60;2.42;;;;;;;25.77;42.63;101448.47;3584464;39;20031;-81
2021/07/08 13:52:11;;;;;;;5.40;2.80;;;;;;;25.69;42.45;101445.47;3536541;40;20049;-81
2021/07/08 13:54:44;;;;;;;4.30;2.22;;;;;;;25.68;42.20;101443.75;3545191;40;20063;-81